Upper Hill, Maryland
Current Conditions -  °F | °C
As of 6:54 PM on Sunday 23 Nov 2014 (Local Time) from KWAL Reporting Station
Light Rain Light Rain  
Wind Chill: 53°   Ceiling: 5000
Heat Index: 53°   Visibility: 10mi
Dew Point: 51°   Wind: 3mph
Humidity: 93%   Direction: 140°SE
Pressure: 30.09"   Gusts: NA
Location:  38.1037°N, 75.7918°W
Report Text: KWAL 232354Z AUTO 14003KT 10SM -RA FEW033 OVC050 12/11 A3009 RMK AO2 RAB15 SLP188 P0001 60001 T01170106 10133 20094 58020
Loading
Personal Weather Stations






























Interactive Weather Map New forecast layout! Learn more

10-Day Weather Forecast

Advertisements
Track Severe Weather on mobile